Moorefield, Nebraska
Current Conditions -  °F | °C
As of 10:55 AM on Friday 28 Nov 2014 (Local Time) from KLXN Reporting Station
Clear Clear  
Wind Chill: 13°   Ceiling: Unl
Heat Index: 13°   Visibility: 10mi
Dew Point: -1°   Wind: 8mph
Humidity: 40%   Direction: 240°WSW
Pressure: 29.81"   Gusts: NA
Location:  40.69°N, 100.4°W
Report Text: KLXN 281655Z AUTO 24007KT 10SM CLR 13/M01 A2981 RMK AO2 T01261008
Loading
Personal Weather Stations






























Interactive Weather Map New forecast layout! Learn more

10-Day Weather Forecast

Advertisements
Track Severe Weather on mobile